createdAt,value
2019-01-13T00:00:42.658Z,71.80
2019-01-13T00:03:15.125Z,112.33
2019-01-13T00:05:47.528Z,132.10
2019-01-13T00:08:19.851Z,126.40
2019-01-13T00:10:51.935Z,104.17
2019-01-13T00:13:24.208Z,126.67
2019-01-13T00:15:56.345Z,192.37
2019-01-13T00:18:28.548Z,105.10
2019-01-13T00:21:00.690Z,53.83
2019-01-13T00:23:32.924Z,68.40
2019-01-13T00:26:05.040Z,117.47
2019-01-13T00:28:37.271Z,70.70
2019-01-13T00:31:09.410Z,247.80
2019-01-13T00:33:41.608Z,163.50
2019-01-13T00:36:13.741Z,156.70
2019-01-13T00:38:45.912Z,162.20
2019-01-13T00:41:18.065Z,110.00
2019-01-13T00:43:49.087Z,133.00
2019-01-13T00:46:20.107Z,106.13
2019-01-13T00:48:52.473Z,109.73
2019-01-13T00:51:24.596Z,125.73
2019-01-13T00:53:56.827Z,124.10
2019-01-13T00:56:29.005Z,158.27
2019-01-13T00:59:01.203Z,182.77
2019-01-13T01:01:33.340Z,144.43
2019-01-13T01:04:06.004Z,156.77
2019-01-13T01:06:38.115Z,154.03
2019-01-13T01:09:12.664Z,141.30
2019-01-13T01:11:44.800Z,142.77
2019-01-13T01:14:17.000Z,187.30
2019-01-13T01:16:49.138Z,118.03
2019-01-13T01:19:21.244Z,290.40
2019-01-13T01:21:53.387Z,132.43
2019-01-13T01:24:25.561Z,252.40
2019-01-13T01:26:57.755Z,185.80
2019-01-13T01:29:29.748Z,8.60
2019-01-13T01:32:01.892Z,28.03
2019-01-13T01:34:34.090Z,16.63
2019-01-13T01:37:06.240Z,13.67
2019-01-13T01:39:38.312Z,10.60
2019-01-13T01:42:10.616Z,12.33
2019-01-13T01:44:42.746Z,24.77
2019-01-13T01:47:14.916Z,24.23
2019-01-13T01:49:47.045Z,14.13
2019-01-13T01:52:19.273Z,30.57
2019-01-13T01:54:51.397Z,37.77
2019-01-13T01:57:23.545Z,41.17
2019-01-13T01:59:55.638Z,61.43
2019-01-13T02:02:27.809Z,190.00
2019-01-13T02:04:59.919Z,38.80
2019-01-13T02:07:32.218Z,33.63
2019-01-13T02:10:04.400Z,120.57
2019-01-13T02:12:36.577Z,26.50
2019-01-13T02:15:12.824Z,23.40
2019-01-13T02:17:45.161Z,26.33
2019-01-13T02:20:20.165Z,21.60
2019-01-13T02:22:52.319Z,13.37
2019-01-13T02:25:33.777Z,17.13
2019-01-13T02:28:05.853Z,17.77
2019-01-13T02:30:38.077Z,19.63
2019-01-13T02:33:10.178Z,18.03
2019-01-13T02:35:42.272Z,26.93
2019-01-13T02:38:14.341Z,12.73
2019-01-13T02:40:46.515Z,23.13
2019-01-13T02:43:19.165Z,12.67
2019-01-13T02:45:51.409Z,19.70
2019-01-13T02:48:23.505Z,10.77
2019-01-13T02:50:55.637Z,12.87
2019-01-13T02:53:27.527Z,4.43
2019-01-13T02:55:59.819Z,4.90
2019-01-13T02:58:31.942Z,15.57
2019-01-13T03:01:04.039Z,36.43
2019-01-13T03:03:36.135Z,20.00
2019-01-13T03:06:08.231Z,16.10
2019-01-13T03:08:40.320Z,16.17
2019-01-13T03:11:12.462Z,24.33
2019-01-13T03:13:44.543Z,8.33
2019-01-13T03:16:16.667Z,36.17
2019-01-13T03:18:48.830Z,43.47
2019-01-13T03:21:21.004Z,16.60
2019-01-13T03:23:53.083Z,50.17
2019-01-13T03:26:25.200Z,43.30
2019-01-13T03:28:57.303Z,80.77
2019-01-13T03:31:29.411Z,50.07
2019-01-13T03:34:01.510Z,44.50
2019-01-13T03:36:33.636Z,38.00
2019-01-13T03:39:08.711Z,32.23
2019-01-13T03:41:40.769Z,20.73
2019-01-13T03:44:12.885Z,31.20
2019-01-13T03:46:44.969Z,52.33
2019-01-13T03:49:17.085Z,27.93
2019-01-13T03:51:49.188Z,25.53
2019-01-13T03:54:21.300Z,16.80
2019-01-13T03:56:53.458Z,48.27
2019-01-13T03:59:25.640Z,30.00
2019-01-13T04:01:57.715Z,33.73
2019-01-13T04:04:29.774Z,37.97
2019-01-13T04:07:01.873Z,39.90
2019-01-13T04:09:33.975Z,88.57
2019-01-13T04:12:06.084Z,38.73
2019-01-13T04:14:38.209Z,36.60
2019-01-13T04:17:11.432Z,74.37
2019-01-13T04:19:43.537Z,24.93
2019-01-13T04:22:15.653Z,50.30
2019-01-13T04:24:47.703Z,16.63
2019-01-13T04:27:19.809Z,26.73
2019-01-13T04:29:51.941Z,25.90
2019-01-13T04:32:24.051Z,35.20
2019-01-13T04:34:56.199Z,29.57
2019-01-13T04:37:28.288Z,22.47
2019-01-13T04:40:00.395Z,22.97
2019-01-13T04:42:32.509Z,27.13
2019-01-13T04:45:04.670Z,22.50
2019-01-13T04:47:36.757Z,14.93
2019-01-13T04:50:09.597Z,23.23
2019-01-13T04:52:41.689Z,30.00
2019-01-13T04:55:13.785Z,25.80
2019-01-13T04:57:45.809Z,29.57
2019-01-13T05:00:20.196Z,25.13
2019-01-13T05:02:52.333Z,15.17
2019-01-13T05:05:24.506Z,30.37
2019-01-13T05:07:56.551Z,22.10
2019-01-13T05:10:28.717Z,28.57
2019-01-13T05:13:00.789Z,26.93
2019-01-13T05:15:33.011Z,27.03
2019-01-13T05:18:05.113Z,70.63
2019-01-13T05:20:37.291Z,15.90
2019-01-13T05:23:09.386Z,51.50
2019-01-13T05:25:41.575Z,28.90
2019-01-13T05:28:13.743Z,7.13
2019-01-13T05:30:45.928Z,32.07
2019-01-13T05:33:18.031Z,10.87
2019-01-13T05:35:50.232Z,7.37
2019-01-13T05:38:22.360Z,10.67
2019-01-13T05:40:54.530Z,4.53
2019-01-13T05:43:26.628Z,5.03
2019-01-13T05:45:58.826Z,4.10
2019-01-13T05:48:30.936Z,6.83
2019-01-13T05:51:03.136Z,6.27
2019-01-13T05:53:35.248Z,13.13
2019-01-13T05:56:07.449Z,10.40
2019-01-13T05:58:39.531Z,8.63
2019-01-13T06:01:11.737Z,14.40
2019-01-13T06:03:43.839Z,17.10
2019-01-13T06:06:15.967Z,18.73
2019-01-13T06:08:48.067Z,15.03
2019-01-13T06:11:20.286Z,20.50
2019-01-13T06:13:52.410Z,20.10
2019-01-13T06:16:24.648Z,24.47
2019-01-13T06:18:56.726Z,18.13
2019-01-13T06:21:30.901Z,32.20
2019-01-13T06:24:02.663Z,21.47
2019-01-13T06:26:34.876Z,18.43
2019-01-13T06:29:07.076Z,21.63
2019-01-13T06:31:39.251Z,13.90
2019-01-13T06:34:11.365Z,14.27
2019-01-13T06:36:43.580Z,12.70
2019-01-13T06:39:15.721Z,26.10
2019-01-13T06:41:47.931Z,9.77
2019-01-13T06:44:20.123Z,11.63
2019-01-13T06:46:52.358Z,143.03
2019-01-13T06:49:24.756Z,163.13
2019-01-13T06:51:56.804Z,169.27
2019-01-13T06:54:28.918Z,192.50
2019-01-13T06:57:01.012Z,5.87
2019-01-13T06:59:33.119Z,14.87
2019-01-13T07:02:05.250Z,14.30
2019-01-13T07:04:37.416Z,26.40
2019-01-13T07:07:09.549Z,39.70
2019-01-13T07:09:41.650Z,17.33
2019-01-13T07:12:13.769Z,14.83
2019-01-13T07:14:45.909Z,13.27
2019-01-13T07:17:18.011Z,20.80
2019-01-13T07:19:50.140Z,11.80
2019-01-13T07:22:22.189Z,12.30
2019-01-13T07:24:54.318Z,14.90
2019-01-13T07:27:26.451Z,20.50
2019-01-13T07:29:58.531Z,19.60
2019-01-13T07:32:30.649Z,23.43
2019-01-13T07:35:02.663Z,19.03
2019-01-13T07:37:34.820Z,18.87
2019-01-13T07:40:11.228Z,34.13
2019-01-13T07:42:43.325Z,11.33
2019-01-13T07:45:17.753Z,10.93
2019-01-13T07:47:49.807Z,9.50
2019-01-13T07:50:21.978Z,11.43
2019-01-13T07:52:53.968Z,9.07
2019-01-13T07:55:26.628Z,10.43
2019-01-13T07:57:58.732Z,17.33
2019-01-13T08:00:33.754Z,9.60
2019-01-13T08:03:09.259Z,11.73
2019-01-13T08:05:41.367Z,15.50
2019-01-13T08:08:13.434Z,13.20
2019-01-13T08:10:45.533Z,17.90
2019-01-13T08:13:17.618Z,31.50
2019-01-13T08:15:49.702Z,10.80
2019-01-13T08:18:21.791Z,83.27
2019-01-13T08:20:54.394Z,13.23
2019-01-13T08:23:26.336Z,54.63
2019-01-13T08:25:58.597Z,12.27
2019-01-13T08:28:30.721Z,11.87
2019-01-13T08:31:02.689Z,9.73
2019-01-13T08:33:34.811Z,27.23
2019-01-13T08:36:06.980Z,29.73
2019-01-13T08:38:39.088Z,28.10
2019-01-13T08:41:11.305Z,20.90
2019-01-13T08:43:43.290Z,24.70
2019-01-13T08:46:15.402Z,19.70
2019-01-13T08:48:47.501Z,32.60
2019-01-13T08:51:19.575Z,36.00
2019-01-13T08:53:51.710Z,39.93
2019-01-13T08:56:23.912Z,29.37
2019-01-13T08:58:56.069Z,50.13
2019-01-13T09:01:28.221Z,32.47
2019-01-13T09:04:00.337Z,21.37
2019-01-13T09:06:32.503Z,36.23
2019-01-13T09:09:07.672Z,85.67
2019-01-13T09:11:39.857Z,35.33
2019-01-13T09:14:11.951Z,29.27
2019-01-13T09:16:44.119Z,38.23
2019-01-13T09:19:16.244Z,116.17
2019-01-13T09:21:48.494Z,32.53
2019-01-13T09:24:20.639Z,34.73
2019-01-13T09:26:52.930Z,36.73
2019-01-13T09:29:25.075Z,39.60
2019-01-13T09:31:57.267Z,41.60
2019-01-13T09:34:29.354Z,43.50
2019-01-13T09:37:01.504Z,81.77
2019-01-13T09:39:33.593Z,41.03
2019-01-13T09:42:06.016Z,35.30
2019-01-13T09:44:38.112Z,84.10
2019-01-13T09:47:10.346Z,25.43
2019-01-13T09:49:42.440Z,52.43
2019-01-13T09:52:14.615Z,46.77
2019-01-13T09:54:46.691Z,65.47
2019-01-13T09:57:18.852Z,42.07
2019-01-13T09:59:50.959Z,48.47
2019-01-13T10:02:23.120Z,65.57
2019-01-13T10:04:55.111Z,63.10
2019-01-13T10:07:27.323Z,81.03
2019-01-13T10:09:59.439Z,68.53
2019-01-13T10:12:31.583Z,58.47
2019-01-13T10:15:03.699Z,45.33
2019-01-13T10:17:35.947Z,85.13
2019-01-13T10:20:09.591Z,85.80
2019-01-13T10:22:41.881Z,168.30
2019-01-13T10:25:14.404Z,68.77
2019-01-13T10:27:46.698Z,94.83
2019-01-13T10:30:33.004Z,45.30
2019-01-13T10:33:05.411Z,61.00
2019-01-13T10:35:37.544Z,91.23
2019-01-13T10:38:09.732Z,88.80
2019-01-13T10:40:41.730Z,77.63
2019-01-13T10:43:14.959Z,88.63
2019-01-13T10:45:47.163Z,79.93
2019-01-13T10:48:19.376Z,70.70
2019-01-13T10:50:51.983Z,64.97
2019-01-13T10:53:24.164Z,87.37
2019-01-13T10:55:56.214Z,104.13
2019-01-13T10:58:28.429Z,68.63
2019-01-13T11:01:00.539Z,100.73
2019-01-13T11:03:32.623Z,68.90
2019-01-13T11:06:04.763Z,94.07
2019-01-13T11:08:36.928Z,214.10
2019-01-13T11:11:08.961Z,142.00
2019-01-13T11:13:41.431Z,75.23
2019-01-13T11:16:13.551Z,101.10
2019-01-13T11:18:45.883Z,112.63
2019-01-13T11:21:18.021Z,145.43
2019-01-13T11:23:50.091Z,181.33
2019-01-13T11:26:22.012Z,263.97
2019-01-13T11:28:56.120Z,101.87
2019-01-13T11:31:28.212Z,163.03
2019-01-13T11:34:00.624Z,149.90
2019-01-13T11:36:32.717Z,71.87
2019-01-13T11:39:09.699Z,209.43
2019-01-13T11:41:41.848Z,150.77
2019-01-13T11:44:14.270Z,233.97
2019-01-13T11:46:46.238Z,222.77
2019-01-13T11:49:18.369Z,180.53
2019-01-13T11:51:50.436Z,151.40
2019-01-13T11:54:23.854Z,168.37
2019-01-13T11:56:55.938Z,173.30
2019-01-13T11:59:28.138Z,124.93
2019-01-13T12:02:00.272Z,144.47
2019-01-13T12:04:32.442Z,140.40
2019-01-13T12:07:04.726Z,137.37
2019-01-13T12:09:36.907Z,124.97
2019-01-13T12:12:09.139Z,124.67
2019-01-13T12:14:41.548Z,95.60
2019-01-13T12:17:13.628Z,262.87
2019-01-13T12:19:46.086Z,293.07
2019-01-13T12:22:18.188Z,241.97
2019-01-13T12:24:50.408Z,140.83
2019-01-13T12:27:22.473Z,179.27
2019-01-13T12:29:54.689Z,161.20
2019-01-13T12:32:26.774Z,214.10
2019-01-13T12:34:58.937Z,130.10
2019-01-13T12:37:31.070Z,150.60
2019-01-13T12:40:03.559Z,246.10
2019-01-13T12:42:36.097Z,139.53
2019-01-13T12:45:10.220Z,159.17
2019-01-13T12:47:42.342Z,232.00
2019-01-13T12:50:19.670Z,160.33
2019-01-13T12:52:51.806Z,152.83
2019-01-13T12:55:24.104Z,110.93
2019-01-13T12:57:56.194Z,117.97
2019-01-13T13:00:28.314Z,127.17
2019-01-13T13:03:00.553Z,126.37
2019-01-13T13:05:33.070Z,137.17
2019-01-13T13:08:06.496Z,188.10
2019-01-13T13:10:47.408Z,264.93
2019-01-13T13:13:19.494Z,93.90
2019-01-13T13:15:51.734Z,135.80
2019-01-13T13:18:23.812Z,87.13
2019-01-13T13:20:56.012Z,91.03
2019-01-13T13:23:29.502Z,170.33
2019-01-13T13:26:01.826Z,129.10
2019-01-13T13:28:33.957Z,119.50
2019-01-13T13:31:06.195Z,80.13
2019-01-13T13:33:38.846Z,72.67
2019-01-13T13:36:12.478Z,68.53
2019-01-13T13:38:44.619Z,47.60
2019-01-13T13:41:16.745Z,42.27
2019-01-13T13:43:45.419Z,32.50
2019-01-13T13:46:17.532Z,33.17
2019-01-13T13:48:49.640Z,33.17
2019-01-13T13:51:21.645Z,41.40
2019-01-13T13:53:54.241Z,56.10
2019-01-13T13:56:26.404Z,139.03
2019-01-13T13:58:58.921Z,65.87
2019-01-13T14:01:31.090Z,128.20
2019-01-13T14:04:03.234Z,91.27
2019-01-13T14:06:35.350Z,87.83
2019-01-13T14:09:11.139Z,128.47
2019-01-13T14:11:44.334Z,99.57
2019-01-13T14:14:16.607Z,116.13
2019-01-13T14:16:48.760Z,100.87
2019-01-13T14:19:20.970Z,142.13
2019-01-13T14:21:56.297Z,141.13
2019-01-13T14:24:28.459Z,97.70
2019-01-13T14:27:00.474Z,96.73
2019-01-13T14:29:32.661Z,110.33
2019-01-13T14:32:04.797Z,114.60
2019-01-13T14:34:36.910Z,103.10
2019-01-13T14:37:08.997Z,97.90
2019-01-13T14:39:41.117Z,87.37
2019-01-13T14:42:13.224Z,112.03
2019-01-13T14:44:45.416Z,94.13
2019-01-13T14:47:17.470Z,199.47
2019-01-13T14:49:49.505Z,89.00
2019-01-13T14:52:21.575Z,46.47
2019-01-13T14:54:53.707Z,54.97
2019-01-13T14:57:25.818Z,84.37
2019-01-13T14:59:58.047Z,155.13
2019-01-13T15:02:30.166Z,120.17
2019-01-13T15:05:02.311Z,58.70
2019-01-13T15:07:34.329Z,59.50
2019-01-13T15:10:07.417Z,130.40
2019-01-13T15:12:39.519Z,139.57
2019-01-13T15:15:13.355Z,104.60
2019-01-13T15:17:45.626Z,172.13
2019-01-13T15:20:20.613Z,56.27
2019-01-13T15:22:53.199Z,91.03
2019-01-13T15:25:29.176Z,143.27
2019-01-13T15:28:01.278Z,45.30
2019-01-13T15:30:42.700Z,58.30
2019-01-13T15:33:14.710Z,129.40
2019-01-13T15:35:46.770Z,92.47
2019-01-13T15:38:18.740Z,44.13
2019-01-13T15:40:50.741Z,56.13
2019-01-13T15:43:22.700Z,94.50
2019-01-13T15:45:54.791Z,87.57
2019-01-13T15:48:26.811Z,82.40
2019-01-13T15:50:58.958Z,113.03
2019-01-13T15:53:30.952Z,96.70
2019-01-13T15:56:02.856Z,100.83
2019-01-13T15:58:34.715Z,106.80
2019-01-13T16:01:07.150Z,158.20
2019-01-13T16:03:39.259Z,62.03
2019-01-13T16:06:11.428Z,48.93
2019-01-13T16:08:43.482Z,69.93
2019-01-13T16:11:15.670Z,91.90
2019-01-13T16:13:47.712Z,146.83
2019-01-13T16:16:19.894Z,89.73
2019-01-13T16:18:51.984Z,82.03
2019-01-13T16:21:24.090Z,96.63
2019-01-13T16:23:56.197Z,74.70
2019-01-13T16:26:28.506Z,162.53
2019-01-13T16:29:02.255Z,119.60
2019-01-13T16:31:34.408Z,77.20
2019-01-13T16:34:06.622Z,84.43
2019-01-13T16:36:38.802Z,106.60
2019-01-13T16:39:14.521Z,73.73
2019-01-13T16:41:50.244Z,136.13
2019-01-13T16:44:22.369Z,55.03
2019-01-13T16:46:54.495Z,150.00
2019-01-13T16:49:26.642Z,190.63
2019-01-13T16:51:58.857Z,123.27
2019-01-13T16:54:31.065Z,268.80
2019-01-13T16:57:03.377Z,159.80
2019-01-13T16:59:35.631Z,137.00
2019-01-13T17:02:07.816Z,49.87
2019-01-13T17:04:40.194Z,153.80
2019-01-13T17:07:12.382Z,113.73
2019-01-13T17:09:44.601Z,65.50
2019-01-13T17:12:17.217Z,89.70
2019-01-13T17:14:49.387Z,57.67
2019-01-13T17:17:21.390Z,164.17
2019-01-13T17:19:53.558Z,98.87
2019-01-13T17:22:25.689Z,192.67
2019-01-13T17:24:58.008Z,59.37
2019-01-13T17:27:30.111Z,90.67
2019-01-13T17:30:02.334Z,41.77
2019-01-13T17:32:34.457Z,78.10
2019-01-13T17:35:07.789Z,58.37
2019-01-13T17:37:40.036Z,32.90
2019-01-13T17:40:15.726Z,126.90
2019-01-13T17:42:47.786Z,29.67
2019-01-13T17:45:21.958Z,52.47
2019-01-13T17:47:54.584Z,56.70
2019-01-13T17:50:28.377Z,89.70
2019-01-13T17:53:00.730Z,21.87
2019-01-13T17:55:33.614Z,35.47
2019-01-13T17:58:05.615Z,27.73
2019-01-13T18:00:51.207Z,36.00
2019-01-13T18:03:29.829Z,18.70
2019-01-13T18:06:01.940Z,26.60
2019-01-13T18:08:34.073Z,16.80
2019-01-13T18:11:06.374Z,81.00
2019-01-13T18:13:38.405Z,59.17
2019-01-13T18:16:10.619Z,114.33
2019-01-13T18:18:42.654Z,519.40
2019-01-13T18:21:14.864Z,217.13
2019-01-13T18:23:46.977Z,313.00
2019-01-13T18:26:19.059Z,211.70
2019-01-13T18:28:51.211Z,254.30
2019-01-13T18:31:23.416Z,12.63
2019-01-13T18:33:55.575Z,109.53
2019-01-13T18:36:27.912Z,32.40
2019-01-13T18:38:59.965Z,91.63
2019-01-13T18:41:32.221Z,23.10
2019-01-13T18:44:04.412Z,20.17
2019-01-13T18:46:36.660Z,43.20
2019-01-13T18:49:08.790Z,40.27
2019-01-13T18:51:40.982Z,29.20
2019-01-13T18:54:13.110Z,58.70
2019-01-13T18:56:45.329Z,33.97
2019-01-13T18:59:17.446Z,146.33
2019-01-13T19:01:49.715Z,26.23
2019-01-13T19:04:21.879Z,183.73
2019-01-13T19:06:54.120Z,101.47
2019-01-13T19:09:26.238Z,105.13
2019-01-13T19:11:58.411Z,30.93
2019-01-13T19:14:43.666Z,25.83
2019-01-13T19:17:21.599Z,34.33
2019-01-13T19:20:02.668Z,84.90
2019-01-13T19:22:37.210Z,15.53
2019-01-13T19:25:35.321Z,41.80
2019-01-13T19:28:07.830Z,105.13
2019-01-13T19:30:39.806Z,11.73
2019-01-13T19:33:11.894Z,14.73
2019-01-13T19:35:43.987Z,16.00
2019-01-13T19:38:16.316Z,23.00
2019-01-13T19:40:48.353Z,66.50
2019-01-13T19:43:23.781Z,74.67
2019-01-13T19:45:58.435Z,29.40
2019-01-13T19:48:32.494Z,93.83
2019-01-13T19:51:06.011Z,73.23
2019-01-13T19:53:40.525Z,28.60
2019-01-13T19:56:14.033Z,46.90
2019-01-13T19:58:49.349Z,77.53
2019-01-13T20:01:22.029Z,63.67
2019-01-13T20:04:01.853Z,76.97
2019-01-13T20:06:34.618Z,51.93
2019-01-13T20:09:12.192Z,97.17
2019-01-13T20:11:45.231Z,48.60
2019-01-13T20:14:17.499Z,48.00
2019-01-13T20:16:49.887Z,20.53
2019-01-13T20:19:22.422Z,19.07
2019-01-13T20:21:54.548Z,21.00
2019-01-13T20:24:28.795Z,31.57
2019-01-13T20:27:02.684Z,30.77
2019-01-13T20:29:34.926Z,67.30
2019-01-13T20:32:07.421Z,34.13
2019-01-13T20:34:39.532Z,53.73
2019-01-13T20:37:11.458Z,19.07
2019-01-13T20:39:43.482Z,30.10
2019-01-13T20:42:15.502Z,18.60
2019-01-13T20:44:47.559Z,42.63
2019-01-13T20:47:19.640Z,75.93
2019-01-13T20:49:51.964Z,27.30
2019-01-13T20:52:24.088Z,106.00
2019-01-13T20:54:56.197Z,60.80
2019-01-13T20:57:28.292Z,56.03
2019-01-13T21:00:00.501Z,21.90
2019-01-13T21:02:32.688Z,31.10
2019-01-13T21:05:05.638Z,42.50
2019-01-13T21:07:37.641Z,9.73
2019-01-13T21:10:12.107Z,22.57
2019-01-13T21:12:44.132Z,9.37
2019-01-13T21:15:20.960Z,72.87
2019-01-13T21:17:57.409Z,61.87
2019-01-13T21:20:27.349Z,163.47
2019-01-13T21:22:59.807Z,14.00
2019-01-13T21:25:31.759Z,6.97
2019-01-13T21:28:04.207Z,122.27
2019-01-13T21:30:36.705Z,7.53
2019-01-13T21:33:08.694Z,6.73
2019-01-13T21:35:40.644Z,7.30
2019-01-13T21:38:12.726Z,6.53
2019-01-13T21:40:44.709Z,4.87
2019-01-13T21:43:16.689Z,5.17
2019-01-13T21:45:48.827Z,32.30
2019-01-13T21:48:20.787Z,8.00
2019-01-13T21:50:52.940Z,23.77
2019-01-13T21:53:25.032Z,4.60
2019-01-13T21:55:56.903Z,4.43
2019-01-13T21:58:28.944Z,8.90
2019-01-13T22:01:01.112Z,4.50
2019-01-13T22:03:33.202Z,3.90
2019-01-13T22:06:05.348Z,4.77
2019-01-13T22:08:37.369Z,5.10
2019-01-13T22:11:09.460Z,4.43
2019-01-13T22:13:41.759Z,11.73
2019-01-13T22:16:13.686Z,9.47
2019-01-13T22:18:45.783Z,4.27
2019-01-13T22:21:19.047Z,3.70
2019-01-13T22:23:51.098Z,8.37
2019-01-13T22:26:25.970Z,6.87
2019-01-13T22:28:58.350Z,4.33
2019-01-13T22:31:31.219Z,5.13
2019-01-13T22:34:03.396Z,4.83
2019-01-13T22:36:35.338Z,4.30
2019-01-13T22:39:09.716Z,5.37
2019-01-13T22:41:42.320Z,7.63
2019-01-13T22:44:15.320Z,4.73
2019-01-13T22:46:49.476Z,4.63
2019-01-13T22:49:21.658Z,3.87
2019-01-13T22:51:53.615Z,7.60
2019-01-13T22:54:25.859Z,4.03
2019-01-13T22:56:57.655Z,4.20
2019-01-13T22:59:29.582Z,3.73
2019-01-13T23:02:01.512Z,3.93
2019-01-13T23:04:33.536Z,4.87
2019-01-13T23:07:05.607Z,4.83
2019-01-13T23:09:37.720Z,4.27
2019-01-13T23:12:10.054Z,4.00
2019-01-13T23:14:45.230Z,4.70
2019-01-13T23:17:17.226Z,4.83
2019-01-13T23:19:49.293Z,6.23
2019-01-13T23:22:21.302Z,5.70
2019-01-13T23:24:53.384Z,4.97
2019-01-13T23:27:25.406Z,5.43
2019-01-13T23:29:57.425Z,4.93
2019-01-13T23:32:29.288Z,4.77
2019-01-13T23:35:01.511Z,4.47
2019-01-13T23:37:33.522Z,5.03
2019-01-13T23:40:06.302Z,4.60
2019-01-13T23:42:38.364Z,5.07
2019-01-13T23:45:11.115Z,4.47
2019-01-13T23:47:43.116Z,8.47
2019-01-13T23:50:15.163Z,4.53
2019-01-13T23:52:47.282Z,16.07
2019-01-13T23:55:19.285Z,6.80
2019-01-13T23:57:51.440Z,19.47
